Time;durP1;ratioP1;P1;durP2;ratioP2;P2;SDS_P1;SDS_P2;PMS_P1;PMS_P2;Temp;Humidity;BMP_temperature;BMP_pressure;BME280_temperature;BME280_humidity;BME280_pressure;Samples;Min_cycle;Max_cycle;Signal;HPM_P1;HPM_P2
2022/09/03 00:00:03;;;;;;;12.30;4.70;;;;;;;12.98;52.03;100646.95;106042;1271;138767;-80
2022/09/03 00:03:04;;;;;;;10.50;4.60;;;;;;;12.93;52.00;100649.41;106157;1271;114269;-78
2022/09/03 00:05:41;;;;;;;9.70;4.00;;;;;;;12.86;52.03;100647.19;107700;1270;139029;-79
2022/09/03 00:08:21;;;;;;;8.70;4.60;;;;;;;12.83;52.22;100649.40;107764;1271;108951;-79
2022/09/03 00:10:59;;;;;;;6.60;4.00;;;;;;;12.79;52.25;100649.38;107651;1270;137962;-79
2022/09/03 00:13:36;;;;;;;6.00;3.90;;;;;;;12.74;52.32;100649.20;107807;1270;96169;-78
2022/09/03 00:16:12;;;;;;;10.10;4.40;;;;;;;12.69;52.16;100650.41;106266;1270;138489;-79
2022/09/03 00:18:48;;;;;;;6.30;3.60;;;;;;;12.65;52.33;100652.11;106159;1270;108898;-81
2022/09/03 00:21:38;;;;;;;9.20;4.00;;;;;;;12.61;52.29;100647.73;106117;1271;108923;-77
2022/09/03 00:24:14;;;;;;;9.60;3.90;;;;;;;12.57;52.65;100650.48;105975;1271;138398;-78
2022/09/03 00:26:53;;;;;;;7.80;3.80;;;;;;;12.53;52.55;100646.92;106195;1271;97932;-77
2022/09/03 00:29:32;;;;;;;6.60;3.80;;;;;;;12.52;52.58;100646.45;106075;1271;138929;-77
2022/09/03 00:32:12;;;;;;;6.70;3.40;;;;;;;12.50;52.68;100646.88;106171;1269;108804;-78
2022/09/03 00:34:49;;;;;;;7.50;3.80;;;;;;;12.49;52.79;100644.98;106081;1271;139140;-78
2022/09/03 00:37:20;;;;;;;;;;;;;;;12.50;52.67;100646.20;106276;1271;97825;-77
2022/09/03 00:39:52;;;;;;;8.10;3.70;;;;;;;12.45;52.74;100647.40;106226;1271;97953;-77
2022/09/03 00:42:42;;;;;;;6.10;3.30;;;;;;;12.42;52.86;100642.79;106123;1271;112227;-78
2022/09/03 00:45:27;;;;;;;4.90;3.40;;;;;;;12.41;52.88;100644.59;106124;1270;108230;-77
2022/09/03 00:48:11;;;;;;;10.70;4.00;;;;;;;12.39;52.95;100646.91;106037;1271;139440;-78
2022/09/03 00:51:05;;;;;;;6.90;3.60;;;;;;;12.35;53.01;100647.18;106138;1271;97903;-78
2022/09/03 00:53:50;;;;;;;7.60;3.70;;;;;;;12.32;53.00;100652.52;106084;1271;137638;-77
2022/09/03 00:56:35;;;;;;;7.80;3.40;;;;;;;12.29;53.17;100653.51;106194;1270;111232;-77
2022/09/03 00:59:21;;;;;;;7.80;3.40;;;;;;;12.27;53.20;100655.86;106092;1270;139620;-78
2022/09/03 01:02:05;;;;;;;7.70;3.70;;;;;;;12.25;53.23;100659.41;106192;1271;108791;-77
2022/09/03 01:04:52;;;;;;;10.30;4.00;;;;;;;12.22;53.27;100657.92;106086;1270;138112;-78
2022/09/03 01:07:34;;;;;;;8.50;4.00;;;;;;;12.18;53.36;100661.02;106198;1271;97796;-78
2022/09/03 01:10:16;;;;;;;6.90;3.40;;;;;;;12.14;53.65;100658.36;106131;1271;137838;-78
2022/09/03 01:12:59;;;;;;;9.00;4.20;;;;;;;12.13;53.58;100656.29;106226;1271;108791;-78
2022/09/03 01:15:41;;;;;;;9.60;4.00;;;;;;;12.10;53.64;100657.42;106181;1270;108044;-78
2022/09/03 01:18:22;;;;;;;7.20;3.80;;;;;;;12.08;53.59;100663.23;106375;1270;137662;-78
2022/09/03 01:21:12;;;;;;;8.50;3.70;;;;;;;12.09;53.62;100660.27;106261;1270;97940;-79
2022/09/03 01:24:11;;;;;;;7.30;3.60;;;;;;;12.06;53.66;100657.71;106127;1270;138651;-78
2022/09/03 01:27:00;;;;;;;6.90;3.60;;;;;;;12.04;53.67;100659.21;106093;1271;107734;-79
2022/09/03 01:29:39;;;;;;;8.30;3.70;;;;;;;12.03;53.68;100655.23;106116;1271;137916;-79
2022/09/03 01:32:16;;;;;;;5.90;3.80;;;;;;;11.97;53.66;100651.39;106225;1270;99269;-79
2022/09/03 01:34:57;;;;;;;6.50;3.70;;;;;;;11.93;53.81;100657.81;106144;1270;137671;-79
2022/09/03 01:37:41;;;;;;;6.90;3.40;;;;;;;11.90;53.99;100659.48;107822;1270;112486;-79
2022/09/03 01:40:24;;;;;;;8.90;3.70;;;;;;;11.87;53.94;100657.64;106812;1271;138242;-79
2022/09/03 01:43:11;;;;;;;6.90;3.40;;;;;;;11.83;54.08;100655.14;106234;1271;108708;-78
2022/09/03 01:45:58;;;;;;;6.90;3.50;;;;;;;11.78;54.17;100653.89;106262;1270;97856;-78
2022/09/03 01:48:43;;;;;;;7.80;3.80;;;;;;;11.76;54.45;100655.49;106699;1271;98602;-78
2022/09/03 01:51:23;;;;;;;10.00;4.00;;;;;;;11.73;54.41;100656.11;106243;1270;111560;-79
2022/09/03 01:54:14;;;;;;;7.60;3.70;;;;;;;11.70;54.33;100650.45;106066;1270;139289;-78
2022/09/03 01:57:12;;;;;;;6.50;3.70;;;;;;;11.65;54.60;100649.40;106164;1271;110860;-78
2022/09/03 02:00:09;;;;;;;5.80;3.40;;;;;;;11.61;54.78;100653.15;106028;1270;137848;-78
2022/09/03 02:02:46;;;;;;;8.90;3.40;;;;;;;11.59;54.81;100649.76;106223;1270;97855;-78
2022/09/03 02:05:21;;;;;;;5.60;3.60;;;;;;;11.56;54.88;100644.47;107644;1271;138806;-78
2022/09/03 02:07:59;;;;;;;5.10;3.40;;;;;;;11.53;55.06;100640.54;107764;1270;109165;-78
2022/09/03 02:10:38;;;;;;;5.20;3.50;;;;;;;11.52;55.09;100645.79;107589;1273;138991;-78
2022/09/03 02:13:13;;;;;;;6.60;3.30;;;;;;;11.50;55.20;100643.41;107672;1271;96047;-78
2022/09/03 02:15:49;;;;;;;9.30;3.60;;;;;;;11.49;55.16;100639.59;107710;1271;96958;-78
2022/09/03 02:18:26;;;;;;;6.90;3.40;;;;;;;11.48;55.37;100639.08;107740;1270;112698;-78
2022/09/03 02:21:00;;;;;;;8.90;3.40;;;;;;;11.46;55.32;100633.38;107749;1271;107927;-79
2022/09/03 02:23:32;;;;;;;6.00;3.70;;;;;;;11.47;55.43;100632.67;107607;1271;138455;-79
2022/09/03 02:26:06;;;;;;;6.40;3.20;;;;;;;11.47;55.54;100634.77;107748;1271;96734;-78
2022/09/03 02:28:39;;;;;;;7.10;3.40;;;;;;;11.46;55.41;100633.73;107645;1271;138539;-78
2022/09/03 02:31:10;;;;;;;7.80;3.50;;;;;;;11.46;55.48;100634.62;107145;1271;112428;-78
2022/09/03 02:33:46;;;;;;;9.10;3.40;;;;;;;11.46;55.66;100633.92;106102;1272;108902;-78
2022/09/03 02:36:24;;;;;;;5.80;3.40;;;;;;;11.45;55.61;100634.84;107584;1271;140016;-78
2022/09/03 02:38:58;;;;;;;6.90;3.50;;;;;;;11.43;55.55;100634.71;107774;1271;96145;-78
2022/09/03 02:41:30;;;;;;;6.10;3.50;;;;;;;11.39;55.56;100635.17;107586;1271;138570;-79
2022/09/03 02:44:09;;;;;;;8.50;3.40;;;;;;;11.36;55.64;100637.88;107782;1270;112829;-78
2022/09/03 02:46:44;;;;;;;5.90;3.20;;;;;;;11.34;55.61;100639.87;107646;1270;139598;-79
2022/09/03 02:49:16;;;;;;;8.10;3.80;;;;;;;11.32;55.77;100637.33;107730;1270;108901;-79
2022/09/03 02:51:48;;;;;;;6.40;3.30;;;;;;;11.29;55.68;100634.94;107198;1270;97235;-78
2022/09/03 02:54:20;;;;;;;5.90;3.40;;;;;;;11.27;55.89;100636.90;106078;1271;138232;-79
2022/09/03 02:56:53;;;;;;;8.60;3.60;;;;;;;11.26;55.80;100634.71;106153;1270;112598;-79
2022/09/03 02:59:27;;;;;;;6.40;3.30;;;;;;;11.23;55.92;100635.48;105896;1271;139254;-79
2022/09/03 03:01:58;;;;;;;5.80;3.30;;;;;;;11.21;55.99;100632.08;106176;1271;108822;-78
2022/09/03 03:04:33;;;;;;;7.00;3.20;;;;;;;11.19;56.04;100630.55;106036;1271;140011;-79
2022/09/03 03:07:05;;;;;;;5.40;3.60;;;;;;;11.17;56.00;100629.56;106210;1270;97848;-78
2022/09/03 03:09:37;;;;;;;9.50;3.90;;;;;;;11.15;56.18;100628.92;106249;1270;112563;-79
2022/09/03 03:12:09;;;;;;;7.80;3.80;;;;;;;11.11;56.30;100626.77;106092;1270;138822;-78
2022/09/03 03:14:41;;;;;;;6.00;3.80;;;;;;;11.07;56.49;100626.02;106232;1270;108855;-78
2022/09/03 03:17:14;;;;;;;7.70;3.80;;;;;;;11.07;56.53;100630.37;106066;1270;140400;-78
2022/09/03 03:19:45;;;;;;;9.70;3.90;;;;;;;11.05;56.40;100628.86;106197;1270;97834;-78
2022/09/03 03:22:18;;;;;;;7.40;3.80;;;;;;;11.02;56.48;100632.60;106109;1270;138724;-77
2022/09/03 03:24:51;;;;;;;4.90;3.50;;;;;;;11.00;56.48;100634.73;106149;1271;109197;-78
2022/09/03 03:27:23;;;;;;;7.30;3.70;;;;;;;11.00;56.58;100633.89;106177;1270;107938;-78
2022/09/03 03:29:56;;;;;;;7.30;3.50;;;;;;;10.97;56.51;100635.71;106143;1270;138687;-78
2022/09/03 03:32:29;;;;;;;10.20;3.50;;;;;;;10.96;56.51;100633.12;106220;1270;97880;-78
2022/09/03 03:35:01;;;;;;;6.20;3.40;;;;;;;10.94;56.33;100634.38;106217;1270;140338;-78
2022/09/03 03:37:34;;;;;;;4.20;3.40;;;;;;;10.90;56.42;100646.67;106738;1270;107895;-78
2022/09/03 03:40:09;;;;;;;7.20;3.50;;;;;;;10.88;56.66;100649.85;106151;1270;139474;-78
2022/09/03 03:42:41;;;;;;;7.40;3.60;;;;;;;10.87;56.69;100651.98;106388;1270;97771;-78
2022/09/03 03:45:14;;;;;;;6.00;3.40;;;;;;;10.84;56.69;100650.32;106152;1270;97808;-78
2022/09/03 03:47:46;;;;;;;6.00;3.70;;;;;;;10.81;56.64;100649.53;106146;1270;138561;-78
2022/09/03 03:50:18;;;;;;;6.70;3.40;;;;;;;10.80;56.67;100650.61;106116;1270;106789;-78
2022/09/03 03:52:51;;;;;;;10.00;4.00;;;;;;;10.79;56.67;100653.08;106395;1270;138080;-77
2022/09/03 03:55:22;;;;;;;8.00;3.90;;;;;;;10.75;56.68;100655.58;106123;1270;97838;-78
2022/09/03 03:57:58;;;;;;;6.00;3.50;;;;;;;10.69;56.60;100650.87;106029;1270;139540;-77
2022/09/03 04:00:30;;;;;;;5.80;3.50;;;;;;;10.66;56.69;100652.17;106181;1270;113150;-78
2022/09/03 04:03:02;;;;;;;7.30;3.60;;;;;;;10.64;56.65;100652.94;106228;1268;108938;-78
2022/09/03 04:05:34;;;;;;;9.50;3.60;;;;;;;10.59;56.50;100654.63;106093;1271;139052;-79
2022/09/03 04:08:06;;;;;;;6.20;3.60;;;;;;;10.55;56.82;100659.58;106262;1268;97845;-79
2022/09/03 04:10:38;;;;;;;8.00;3.50;;;;;;;10.54;56.93;100657.35;106138;1271;138611;-79
2022/09/03 04:13:10;;;;;;;8.10;3.30;;;;;;;10.54;57.00;100653.88;106166;1271;112770;-79
2022/09/03 04:15:43;;;;;;;5.50;3.40;;;;;;;10.54;57.14;100652.64;106093;1271;108304;-79
2022/09/03 04:18:15;;;;;;;10.00;3.40;;;;;;;10.55;57.16;100655.75;106070;1271;138384;-79
2022/09/03 04:20:47;;;;;;;8.00;3.20;;;;;;;10.64;57.41;100655.55;106130;1270;97953;-80
2022/09/03 04:23:19;;;;;;;7.80;3.30;;;;;;;10.96;57.45;100656.59;106046;1271;138298;-79
2022/09/03 04:25:55;;;;;;;7.80;3.00;;;;;;;11.41;56.79;100661.08;106151;1271;112024;-79
2022/09/03 04:28:27;;;;;;;8.70;3.40;;;;;;;11.89;56.26;100662.61;106155;1270;138327;-78
2022/09/03 04:31:04;;;;;;;5.80;3.30;;;;;;;12.49;55.62;100662.08;106257;1270;107780;-78
2022/09/03 04:33:38;;;;;;;7.30;3.20;;;;;;;13.21;54.66;100656.25;106167;1271;97821;-78
2022/09/03 04:36:13;;;;;;;6.10;3.30;;;;;;;13.97;53.73;100652.48;106153;1270;139541;-78
2022/09/03 04:38:46;;;;;;;7.70;3.20;;;;;;;14.79;52.99;100648.76;106285;1271;112406;-78
2022/09/03 04:41:21;;;;;;;7.80;3.60;;;;;;;15.52;51.59;100650.42;106109;1270;137882;-80
2022/09/03 04:43:55;;;;;;;8.10;3.70;;;;;;;16.23;50.68;100652.34;106121;1271;108854;-78
2022/09/03 04:46:31;;;;;;;9.70;3.30;;;;;;;16.89;49.56;100643.55;106045;1270;138106;-79
2022/09/03 04:49:06;;;;;;;10.30;3.20;;;;;;;17.51;48.08;100643.05;107819;1270;95959;-80
2022/09/03 04:51:38;;;;;;;7.20;3.10;;;;;;;18.01;47.29;100647.14;107779;1270;112525;-80
2022/09/03 04:54:10;;;;;;;8.90;3.10;;;;;;;18.60;46.47;100648.31;107680;1270;137786;-80
2022/09/03 04:56:42;;;;;;;11.60;3.40;;;;;;;19.15;45.50;100651.02;106255;1270;107784;-79
2022/09/03 04:59:14;;;;;;;8.80;3.30;;;;;;;19.63;44.62;100657.56;106117;1270;137956;-79
2022/09/03 05:01:46;;;;;;;5.80;2.80;;;;;;;20.09;43.59;100662.53;106274;1271;97695;-78
2022/09/03 05:04:19;;;;;;;12.00;3.40;;;;;;;20.55;42.66;100662.17;106115;1270;137823;-78
2022/09/03 05:06:51;;;;;;;9.00;3.20;;;;;;;20.99;41.43;100659.52;106205;1270;107701;-78
2022/09/03 05:09:23;;;;;;;5.20;3.20;;;;;;;21.47;40.33;100655.70;106236;1270;107534;-78
2022/09/03 05:11:55;;;;;;;6.60;2.90;;;;;;;21.97;39.51;100654.71;106130;1270;137888;-78
2022/09/03 05:14:27;;;;;;;6.90;2.80;;;;;;;22.60;38.82;100656.59;106257;1270;99265;-79
2022/09/03 05:16:59;;;;;;;7.80;2.90;;;;;;;23.35;37.95;100655.73;106069;1270;137813;-78
2022/09/03 05:19:31;;;;;;;6.50;3.10;;;;;;;24.07;36.74;100653.65;106191;1270;109036;-79
2022/09/03 05:22:03;;;;;;;3.80;2.50;;;;;;;24.75;35.58;100651.36;106128;1270;138196;-77
2022/09/03 05:24:35;;;;;;;5.70;3.30;;;;;;;25.19;34.66;100651.49;106182;1270;98203;-78
2022/09/03 05:27:07;;;;;;;6.00;2.70;;;;;;;25.64;34.15;100654.70;106206;1270;97810;-78
2022/09/03 05:29:38;;;;;;;8.40;3.00;;;;;;;25.96;33.15;100653.27;106156;1270;137948;-79
2022/09/03 05:32:11;;;;;;;5.80;2.80;;;;;;;26.35;32.89;100654.35;106236;1270;108989;-78
2022/09/03 05:34:43;;;;;;;6.50;2.90;;;;;;;26.94;32.39;100653.27;106138;1270;138883;-78
2022/09/03 05:37:15;;;;;;;5.90;2.70;;;;;;;27.46;31.67;100651.20;106209;1269;97902;-78
2022/09/03 05:39:47;;;;;;;4.60;2.60;;;;;;;27.89;30.98;100653.42;106337;1270;97800;-78
2022/09/03 05:42:19;;;;;;;5.10;2.60;;;;;;;28.28;30.54;100651.46;106071;1270;137518;-79
2022/09/03 05:44:51;;;;;;;7.20;2.70;;;;;;;28.51;29.94;100650.62;106257;1268;108605;-78
2022/09/03 05:47:23;;;;;;;6.50;3.00;;;;;;;28.54;29.23;100648.75;106100;1270;137907;-78
2022/09/03 05:49:55;;;;;;;4.60;2.40;;;;;;;28.43;29.12;100648.59;106256;1270;97909;-79
2022/09/03 05:52:29;;;;;;;4.30;2.50;;;;;;;28.50;29.07;100646.39;106057;1270;137820;-78
2022/09/03 05:55:02;;;;;;;3.90;2.40;;;;;;;28.62;28.68;100644.98;106249;1270;111546;-78
2022/09/03 05:57:34;;;;;;;6.70;2.50;;;;;;;28.77;28.71;100639.19;106242;1270;109109;-78
2022/09/03 06:00:10;;;;;;;4.30;2.10;;;;;;;29.14;28.52;100638.40;106153;1270;137906;-78
2022/09/03 06:02:50;;;;;;;9.80;2.30;;;;;;;29.76;27.90;100633.81;107753;1270;96194;-79
2022/09/03 06:05:22;;;;;;;4.70;2.20;;;;;;;30.47;27.07;100634.08;107688;1270;137626;-79
2022/09/03 06:07:54;;;;;;;4.60;2.30;;;;;;;31.34;26.30;100630.63;107830;1270;113141;-79
2022/09/03 06:10:26;;;;;;;4.80;2.80;;;;;;;32.38;25.79;100636.62;107696;1270;137995;-79
2022/09/03 06:13:09;;;;;;;7.40;2.40;;;;;;;33.55;24.96;100632.63;107756;1271;108879;-79
2022/09/03 06:15:41;;;;;;;5.80;2.30;;;;;;;34.46;24.05;100631.80;107799;1270;96271;-79
2022/09/03 06:18:13;;;;;;;4.90;2.10;;;;;;;35.18;23.58;100631.92;107629;1271;137906;-79
2022/09/03 06:20:53;;;;;;;4.50;2.10;;;;;;;35.86;22.77;100631.98;106976;1270;112378;-79
2022/09/03 06:23:26;;;;;;;5.50;2.50;;;;;;;36.47;22.28;100627.59;106203;1270;137808;-78
2022/09/03 06:26:07;;;;;;;6.60;2.10;;;;;;;37.03;21.53;100623.66;106251;1270;108795;-79
2022/09/03 06:28:42;;;;;;;9.40;2.50;;;;;;;37.45;21.05;100620.98;106230;1270;139700;-80
2022/09/03 06:31:15;;;;;;;5.90;2.40;;;;;;;37.66;20.69;100616.09;106166;1270;97881;-79
2022/09/03 06:33:48;;;;;;;5.70;2.20;;;;;;;37.74;20.28;100616.38;106214;1270;112543;-79
2022/09/03 06:36:22;;;;;;;4.70;2.20;;;;;;;37.61;19.89;100622.05;106063;1271;138496;-77
2022/09/03 06:38:56;;;;;;;4.30;2.00;;;;;;;37.32;19.61;100628.20;106122;1271;108898;-79
2022/09/03 06:41:31;;;;;;;4.50;2.30;;;;;;;37.10;19.59;100632.27;106994;1270;137825;-79
2022/09/03 06:44:05;;;;;;;6.10;2.80;;;;;;;37.10;19.51;100632.34;107835;1269;96073;-79
2022/09/03 06:46:41;;;;;;;5.70;2.30;;;;;;;37.28;19.07;100633.20;107087;1270;137956;-79
2022/09/03 06:49:13;;;;;;;3.90;2.30;;;;;;;37.69;19.27;100632.74;106305;1270;109290;-79
2022/09/03 06:51:45;;;;;;;7.60;2.20;;;;;;;38.14;19.14;100634.13;106270;1270;107822;-79
2022/09/03 06:54:17;;;;;;;6.60;2.30;;;;;;;38.64;18.65;100633.29;106176;1270;138009;-79
2022/09/03 06:56:49;;;;;;;5.00;2.30;;;;;;;39.07;18.70;100626.12;106261;1270;97901;-79
2022/09/03 06:59:21;;;;;;;7.30;2.40;;;;;;;39.51;18.13;100625.79;106174;1270;138093;-79
2022/09/03 07:01:53;;;;;;;6.00;2.20;;;;;;;39.88;17.99;100628.20;106264;1270;108808;-79
2022/09/03 07:04:27;;;;;;;6.80;2.30;;;;;;;40.17;17.37;100630.05;106119;1270;138251;-80
2022/09/03 07:06:59;;;;;;;4.70;2.40;;;;;;;40.48;17.39;100627.79;107754;1270;96359;-80
2022/09/03 07:09:35;;;;;;;7.20;2.30;;;;;;;40.68;17.08;100629.80;107802;1270;96416;-80
2022/09/03 07:12:09;;;;;;;10.60;2.60;;;;;;;40.94;16.85;100633.77;107689;1270;139241;-80
2022/09/03 07:14:41;;;;;;;6.10;2.30;;;;;;;41.16;16.80;100628.77;107824;1270;107737;-80
2022/09/03 07:17:13;;;;;;;5.70;2.30;;;;;;;41.32;16.31;100624.33;106471;1270;1510438;-80
2022/09/03 07:19:45;;;;;;;7.50;2.30;;;;;;;41.44;16.22;100627.41;107816;1268;96177;-80
2022/09/03 07:22:17;;;;;;;4.50;2.70;;;;;;;41.50;16.06;100634.32;107604;1271;139273;-80
2022/09/03 07:24:51;;;;;;;3.80;2.30;;;;;;;41.38;15.84;100635.61;107678;1269;112504;-80
2022/09/03 07:27:23;;;;;;;6.30;2.40;;;;;;;41.34;15.78;100633.63;106364;1270;108859;-79
2022/09/03 07:29:55;;;;;;;7.10;2.50;;;;;;;41.36;15.76;100637.05;106232;1270;139814;-79
2022/09/03 07:32:31;;;;;;;10.30;2.80;;;;;;;41.28;15.80;100641.11;106272;1270;97806;-79
2022/09/03 07:35:03;;;;;;;5.60;2.70;;;;;;;41.24;15.95;100648.72;106092;1271;137925;-79
2022/09/03 07:37:37;;;;;;;3.90;2.40;;;;;;;41.15;15.69;100647.24;106275;1270;112289;-80
2022/09/03 07:40:11;;;;;;;6.80;3.00;;;;;;;41.02;15.46;100651.34;105996;1270;138082;-79
2022/09/03 07:42:42;;;;;;;5.90;2.60;;;;;;;40.84;15.52;100649.18;106188;1270;108748;-79
2022/09/03 07:45:15;;;;;;;7.00;3.20;;;;;;;40.73;15.57;100648.89;106160;1270;97838;-80
2022/09/03 07:47:50;;;;;;;4.60;2.60;;;;;;;40.66;15.63;100645.52;105957;1271;137867;-78
2022/09/03 07:50:22;;;;;;;5.80;2.50;;;;;;;40.67;15.60;100642.73;106260;1270;112377;-82
2022/09/03 07:52:59;;;;;;;10.40;2.50;;;;;;;40.61;15.23;100645.28;106127;1270;137842;-73
2022/09/03 07:55:31;;;;;;;6.50;2.90;;;;;;;40.51;15.48;100643.39;106209;1270;108843;-71
2022/09/03 07:58:06;;;;;;;7.80;2.40;;;;;;;40.50;15.19;100643.11;106090;1270;139216;-71
2022/09/03 08:00:38;;;;;;;6.30;2.10;;;;;;;40.44;15.00;100645.31;106302;1270;97845;-71
2022/09/03 08:03:11;;;;;;;6.20;2.40;;;;;;;40.22;14.68;100646.65;106344;1270;112424;-72
2022/09/03 08:05:44;;;;;;;6.80;2.00;;;;;;;40.07;15.15;100650.63;106252;1270;137786;-71
2022/09/03 08:08:16;;;;;;;6.70;2.00;;;;;;;40.06;15.26;100651.27;106210;1270;107829;-71
2022/09/03 08:10:50;;;;;;;4.70;2.30;;;;;;;39.97;14.82;100650.00;106213;1270;137846;-70
2022/09/03 08:13:22;;;;;;;6.90;2.10;;;;;;;39.82;14.96;100650.83;106282;1270;97822;-71
2022/09/03 08:16:00;;;;;;;5.90;2.10;;;;;;;39.77;15.28;100648.80;106114;1270;137911;-72
2022/09/03 08:18:36;;;;;;;6.80;2.10;;;;;;;39.62;14.78;100645.94;106246;1270;108792;-71
2022/09/03 08:21:11;;;;;;;5.50;1.80;;;;;;;39.48;14.64;100639.08;106162;1270;106789;-71
2022/09/03 08:23:44;;;;;;;8.20;1.90;;;;;;;39.36;15.06;100638.33;106084;1270;137803;-71
2022/09/03 08:26:17;;;;;;;5.80;2.30;;;;;;;39.34;14.59;100643.84;106218;1270;97838;-71
2022/09/03 08:28:52;;;;;;;6.40;1.90;;;;;;;39.24;14.78;100645.56;106137;1271;137800;-71
2022/09/03 08:31:26;;;;;;;3.70;2.00;;;;;;;39.13;14.66;100647.14;107699;1271;109188;-70
2022/09/03 08:34:05;;;;;;;4.00;2.30;;;;;;;39.06;14.89;100644.36;107669;1270;137981;-71
2022/09/03 08:36:40;;;;;;;3.30;1.50;;;;;;;38.99;14.91;100639.39;107802;1270;96149;-69
2022/09/03 08:39:13;;;;;;;7.80;1.90;;;;;;;38.86;14.44;100639.05;107855;1270;96109;-71
2022/09/03 08:42:10;;;;;;;3.70;1.80;;;;;;;38.57;14.58;100636.75;107752;1270;140397;-71
2022/09/03 08:44:46;;;;;;;5.50;1.60;;;;;;;38.29;14.95;100635.63;107834;1270;108174;-70
2022/09/03 08:47:23;;;;;;;6.70;1.80;;;;;;;38.16;15.44;100637.13;107515;1270;138613;-71
2022/09/03 08:49:59;;;;;;;3.40;1.90;;;;;;;38.02;15.37;100628.46;107815;1270;97282;-70
2022/09/03 08:52:37;;;;;;;4.80;2.20;;;;;;;37.92;15.40;100631.42;107713;1270;137840;-69
2022/09/03 08:55:20;;;;;;;6.50;2.10;;;;;;;37.89;15.16;100629.30;107822;1270;111304;-69
2022/09/03 08:57:57;;;;;;;3.00;2.00;;;;;;;37.83;15.06;100625.64;107834;1270;108730;-68
2022/09/03 09:00:42;;;;;;;5.60;2.20;;;;;;;37.54;15.22;100624.73;107105;1270;108998;-67
2022/09/03 09:03:34;;;;;;;5.50;2.20;;;;;;;37.28;14.49;100622.31;106241;1271;97873;-67
2022/09/03 09:06:17;;;;;;;5.10;2.00;;;;;;;36.84;15.57;100624.06;106086;1271;138079;-68
2022/09/03 09:09:03;;;;;;;4.40;1.90;;;;;;;36.72;15.81;100620.20;106355;1270;112697;-68
2022/09/03 09:11:46;;;;;;;2.70;1.50;;;;;;;36.49;15.41;100618.77;107703;1270;138069;-68
2022/09/03 09:14:24;;;;;;;2.70;1.60;;;;;;;36.33;15.92;100617.79;107789;1270;109022;-68
2022/09/03 09:17:02;;;;;;;4.30;1.50;;;;;;;36.30;15.99;100619.23;106151;1271;138265;-67
2022/09/03 09:19:44;;;;;;;4.40;1.60;;;;;;;36.14;15.12;100621.23;106373;1271;97847;-67
2022/09/03 09:22:24;;;;;;;2.60;1.30;;;;;;;35.81;15.40;100619.66;106135;1270;137811;-69
2022/09/03 09:24:59;;;;;;;3.90;1.50;;;;;;;35.57;15.34;100621.04;107539;1270;108981;-68
2022/09/03 09:27:32;;;;;;;1.30;1.20;;;;;;;35.28;15.04;100618.56;106686;1270;108801;-68
2022/09/03 09:30:07;;;;;;;8.10;1.70;;;;;;;34.89;16.07;100619.70;107663;1270;139371;-69
2022/09/03 09:32:39;;;;;;;3.20;1.70;;;;;;;34.66;15.38;100620.64;107760;1270;96182;-70
2022/09/03 09:35:12;;;;;;;59.80;54.00;;;;;;;34.17;16.56;100619.83;107654;1270;138237;-69
2022/09/03 09:37:52;;;;;;;35.60;18.20;;;;;;;33.95;16.92;100622.85;107754;1270;107788;-71
2022/09/03 09:40:34;;;;;;;7.40;4.10;;;;;;;33.92;17.16;100619.23;107599;1270;139591;-80
2022/09/03 09:43:09;;;;;;;7.00;3.70;;;;;;;33.74;16.25;100616.27;107741;1270;96102;-72
2022/09/03 09:45:44;;;;;;;7.20;2.10;;;;;;;33.34;16.08;100620.77;107653;1270;96009;-72
2022/09/03 09:48:30;;;;;;;3.20;1.60;;;;;;;32.98;16.74;100620.50;106032;1269;137820;-71
2022/09/03 09:51:11;;;;;;;11.20;5.60;;;;;;;32.86;17.30;100618.34;106377;1270;108850;-72
2022/09/03 09:53:44;;;;;;;7.80;3.20;;;;;;;32.84;17.92;100612.98;106233;1270;138085;-70
2022/09/03 09:56:24;;;;;;;3.90;1.90;;;;;;;32.84;17.73;100612.71;106348;1271;97815;-69
2022/09/03 09:59:07;;;;;;;15.20;6.90;;;;;;;32.83;17.88;100609.63;106035;1271;138006;-69
2022/09/03 10:01:41;;;;;;;12.10;4.50;;;;;;;32.81;17.94;100614.34;106192;1270;113348;-71
2022/09/03 10:04:23;;;;;;;5.40;1.80;;;;;;;32.80;17.73;100612.24;106081;1271;139041;-71
2022/09/03 10:07:00;;;;;;;4.20;1.40;;;;;;;32.70;17.41;100612.12;106113;1271;108435;-72
2022/09/03 10:09:33;;;;;;;3.90;1.90;;;;;;;32.58;17.45;100618.36;106482;1271;99680;-76
2022/09/03 10:12:18;;;;;;;6.40;2.10;;;;;;;32.41;17.39;100620.86;107633;1271;137668;-75
2022/09/03 10:14:55;;;;;;;5.80;2.10;;;;;;;32.29;17.67;100617.98;107771;1271;112511;-75
2022/09/03 10:17:35;;;;;;;5.50;2.30;;;;;;;32.20;17.73;100615.84;107667;1271;138274;-74
2022/09/03 10:20:29;;;;;;;4.00;1.90;;;;;;;32.03;17.37;100618.33;107246;1271;109022;-69
2022/09/03 10:23:09;;;;;;;3.90;1.60;;;;;;;31.81;18.26;100605.11;106099;1271;137949;-69
2022/09/03 10:25:52;;;;;;;3.90;1.80;;;;;;;31.77;17.85;100606.07;107265;1271;96314;-68
2022/09/03 10:28:29;;;;;;;3.30;1.60;;;;;;;31.67;17.66;100609.16;106030;1273;138333;-68
2022/09/03 10:31:35;;;;;;;3.20;1.80;;;;;;;31.40;17.34;100604.24;106080;1273;108882;-68
2022/09/03 10:34:15;;;;;;;4.20;1.80;;;;;;;30.90;17.35;100598.80;106180;1271;138054;-67
2022/09/03 10:36:54;;;;;;;2.40;1.50;;;;;;;30.61;18.00;100602.52;106427;1272;97854;-68
2022/09/03 10:39:38;;;;;;;2.60;1.50;;;;;;;30.49;18.37;100603.84;107662;1271;95800;-68
2022/09/03 10:42:32;;;;;;;3.70;1.50;;;;;;;30.50;18.90;100588.84;107507;1271;139442;-69
2022/09/03 10:45:15;;;;;;;5.10;1.70;;;;;;;30.52;18.69;100583.98;107650;1271;107785;-69
2022/09/03 10:48:24;;;;;;;5.00;1.80;;;;;;;30.33;18.17;100594.20;106140;1271;138347;-69
2022/09/03 10:51:03;;;;;;;3.20;1.50;;;;;;;30.01;18.47;100588.33;105547;1277;97841;-71
2022/09/03 10:54:02;;;;;;;1.60;1.30;;;;;;;29.71;18.15;100584.07;105709;1277;137873;-71
2022/09/03 10:56:41;;;;;;;4.90;1.60;;;;;;;29.31;17.99;100585.42;105750;1278;112292;-73
2022/09/03 10:59:33;;;;;;;4.40;1.40;;;;;;;29.02;18.31;100585.13;105595;1278;138283;-71
2022/09/03 11:02:21;;;;;;;2.50;1.40;;;;;;;28.83;18.27;100578.83;105617;1279;107804;-71
2022/09/03 11:05:01;;;;;;;3.90;2.10;;;;;;;28.56;18.77;100576.07;105669;1277;139823;-72
2022/09/03 11:07:42;;;;;;;4.20;1.60;;;;;;;28.54;19.28;100574.29;105796;1277;97853;-72
2022/09/03 11:10:19;;;;;;;4.60;1.50;;;;;;;28.57;19.33;100573.44;105713;1278;137890;-73
2022/09/03 11:13:02;;;;;;;2.50;1.40;;;;;;;28.47;19.49;100574.83;105981;1278;107876;-71
2022/09/03 11:15:37;;;;;;;3.30;1.40;;;;;;;28.41;19.13;100572.98;105795;1279;107527;-72
2022/09/03 11:18:15;;;;;;;;;;;;;;;28.27;19.35;100574.71;105727;1279;138117;-72
2022/09/03 11:20:52;;;;;;;2.00;1.40;;;;;;;28.09;19.38;100576.14;105839;1279;98725;-72
2022/09/03 11:23:28;;;;;;;4.40;1.60;;;;;;;27.89;19.20;100577.27;105736;1278;139831;-72
2022/09/03 11:26:05;;;;;;;4.40;1.80;;;;;;;27.64;19.62;100565.61;105834;1278;107791;-73
2022/09/03 11:28:43;;;;;;;;;;;;;;;27.61;19.52;100564.48;105875;1272;138068;-74
2022/09/03 11:31:25;;;;;;;6.30;1.70;;;;;;;27.50;19.53;100561.18;106261;1270;97870;-73
2022/09/03 11:34:04;;;;;;;5.20;1.60;;;;;;;27.37;19.36;100561.67;106171;1271;138448;-74
2022/09/03 11:36:40;;;;;;;3.80;1.40;;;;;;;27.21;19.87;100562.95;106226;1271;112594;-74
2022/09/03 11:39:26;;;;;;;4.50;1.20;;;;;;;27.10;20.62;100560.01;106267;1270;109383;-72
2022/09/03 11:42:05;;;;;;;6.60;1.90;;;;;;;27.23;20.82;100560.40;106143;1270;137882;-74
2022/09/03 11:44:42;;;;;;;4.60;2.10;;;;;;;27.36;20.24;100557.12;106246;1270;97837;-73
2022/09/03 11:47:37;;;;;;;2.90;1.40;;;;;;;27.25;20.02;100561.29;106046;1271;137670;-73
2022/09/03 11:50:19;;;;;;;9.30;2.60;;;;;;;27.18;20.97;100558.17;106334;1269;112398;-73
2022/09/03 11:52:55;;;;;;;5.80;1.70;;;;;;;27.20;21.09;100553.02;106226;1270;138410;-72
2022/09/03 11:55:34;;;;;;;2.50;1.10;;;;;;;27.22;20.41;100555.00;106259;1271;107803;-72